sensor_id;sensor_type;location;lat;lon;timestamp;P1;durP1;ratioP1;P2;durP2;ratioP2
74630;SDS011;63138;55.082;38.804;2023-11-19T00:02:11;33.33;;;17.80;;
74630;SDS011;63138;55.082;38.804;2023-11-19T00:04:37;33.55;;;20.05;;
74630;SDS011;63138;55.082;38.804;2023-11-19T00:07:06;43.45;;;21.42;;
74630;SDS011;63138;55.082;38.804;2023-11-19T00:09:33;38.50;;;18.73;;
74630;SDS011;63138;55.082;38.804;2023-11-19T00:12:02;40.53;;;19.13;;
74630;SDS011;63138;55.082;38.804;2023-11-19T00:14:30;45.72;;;16.92;;
74630;SDS011;63138;55.082;38.804;2023-11-19T00:16:56;23.33;;;14.00;;
74630;SDS011;63138;55.082;38.804;2023-11-19T00:19:22;23.48;;;13.07;;
74630;SDS011;63138;55.082;38.804;2023-11-19T00:21:48;9.63;;;8.70;;
74630;SDS011;63138;55.082;38.804;2023-11-19T00:24:14;22.55;;;11.10;;
74630;SDS011;63138;55.082;38.804;2023-11-19T00:26:42;18.00;;;11.32;;
74630;SDS011;63138;55.082;38.804;2023-11-19T00:29:08;18.90;;;11.33;;
74630;SDS011;63138;55.082;38.804;2023-11-19T00:31:34;37.90;;;15.90;;
74630;SDS011;63138;55.082;38.804;2023-11-19T00:34:00;27.65;;;13.85;;
74630;SDS011;63138;55.082;38.804;2023-11-19T00:36:27;25.42;;;13.82;;
74630;SDS011;63138;55.082;38.804;2023-11-19T00:38:53;24.48;;;13.23;;
74630;SDS011;63138;55.082;38.804;2023-11-19T00:41:20;25.53;;;14.40;;
74630;SDS011;63138;55.082;38.804;2023-11-19T00:43:46;26.20;;;13.65;;
74630;SDS011;63138;55.082;38.804;2023-11-19T00:46:12;27.27;;;14.05;;
74630;SDS011;63138;55.082;38.804;2023-11-19T00:48:39;24.30;;;13.68;;
74630;SDS011;63138;55.082;38.804;2023-11-19T00:51:05;24.60;;;14.77;;
74630;SDS011;63138;55.082;38.804;2023-11-19T00:53:31;28.25;;;14.27;;
74630;SDS011;63138;55.082;38.804;2023-11-19T00:56:00;22.58;;;13.20;;
74630;SDS011;63138;55.082;38.804;2023-11-19T00:58:26;19.88;;;11.32;;
74630;SDS011;63138;55.082;38.804;2023-11-19T01:00:52;26.63;;;14.23;;
74630;SDS011;63138;55.082;38.804;2023-11-19T01:03:18;24.75;;;13.07;;
74630;SDS011;63138;55.082;38.804;2023-11-19T01:05:44;29.15;;;14.68;;
74630;SDS011;63138;55.082;38.804;2023-11-19T01:08:12;27.60;;;14.50;;
74630;SDS011;63138;55.082;38.804;2023-11-19T01:10:38;30.60;;;14.07;;
74630;SDS011;63138;55.082;38.804;2023-11-19T01:13:04;31.60;;;14.35;;
74630;SDS011;63138;55.082;38.804;2023-11-19T01:15:31;38.40;;;18.25;;
74630;SDS011;63138;55.082;38.804;2023-11-19T01:17:58;31.92;;;13.32;;
74630;SDS011;63138;55.082;38.804;2023-11-19T01:20:24;34.90;;;15.13;;
74630;SDS011;63138;55.082;38.804;2023-11-19T01:22:50;31.52;;;16.52;;
74630;SDS011;63138;55.082;38.804;2023-11-19T01:25:17;35.10;;;16.58;;
74630;SDS011;63138;55.082;38.804;2023-11-19T01:27:45;32.20;;;14.13;;
74630;SDS011;63138;55.082;38.804;2023-11-19T01:30:11;26.33;;;15.20;;
74630;SDS011;63138;55.082;38.804;2023-11-19T01:32:40;33.50;;;15.60;;
74630;SDS011;63138;55.082;38.804;2023-11-19T01:35:06;27.70;;;13.07;;
74630;SDS011;63138;55.082;38.804;2023-11-19T01:37:33;24.40;;;11.57;;
74630;SDS011;63138;55.082;38.804;2023-11-19T01:40:03;28.40;;;14.57;;
74630;SDS011;63138;55.082;38.804;2023-11-19T01:42:37;31.58;;;16.23;;
74630;SDS011;63138;55.082;38.804;2023-11-19T01:45:04;30.35;;;16.65;;
74630;SDS011;63138;55.082;38.804;2023-11-19T01:47:33;39.78;;;16.73;;
74630;SDS011;63138;55.082;38.804;2023-11-19T01:50:00;31.87;;;14.87;;
74630;SDS011;63138;55.082;38.804;2023-11-19T01:52:29;29.80;;;14.00;;
74630;SDS011;63138;55.082;38.804;2023-11-19T01:54:55;24.23;;;13.48;;
74630;SDS011;63138;55.082;38.804;2023-11-19T01:57:21;30.53;;;15.70;;
74630;SDS011;63138;55.082;38.804;2023-11-19T01:59:49;27.75;;;13.43;;
74630;SDS011;63138;55.082;38.804;2023-11-19T02:02:16;31.92;;;16.48;;
74630;SDS011;63138;55.082;38.804;2023-11-19T02:04:49;28.90;;;15.70;;
74630;SDS011;63138;55.082;38.804;2023-11-19T02:07:18;22.17;;;11.77;;
74630;SDS011;63138;55.082;38.804;2023-11-19T02:09:44;21.60;;;11.93;;
74630;SDS011;63138;55.082;38.804;2023-11-19T02:12:11;20.20;;;11.93;;
74630;SDS011;63138;55.082;38.804;2023-11-19T02:14:38;25.15;;;12.90;;
74630;SDS011;63138;55.082;38.804;2023-11-19T02:17:05;18.73;;;10.25;;
74630;SDS011;63138;55.082;38.804;2023-11-19T02:19:32;32.83;;;15.10;;
74630;SDS011;63138;55.082;38.804;2023-11-19T02:21:57;24.93;;;11.87;;
74630;SDS011;63138;55.082;38.804;2023-11-19T02:24:23;18.33;;;10.10;;
74630;SDS011;63138;55.082;38.804;2023-11-19T02:29:23;20.50;;;12.32;;
74630;SDS011;63138;55.082;38.804;2023-11-19T02:31:48;32.80;;;16.25;;
74630;SDS011;63138;55.082;38.804;2023-11-19T02:34:14;25.90;;;14.10;;
74630;SDS011;63138;55.082;38.804;2023-11-19T02:36:41;20.30;;;11.27;;
74630;SDS011;63138;55.082;38.804;2023-11-19T02:39:07;18.60;;;10.05;;
74630;SDS011;63138;55.082;38.804;2023-11-19T02:41:36;23.50;;;11.70;;
74630;SDS011;63138;55.082;38.804;2023-11-19T02:44:02;33.20;;;15.30;;
74630;SDS011;63138;55.082;38.804;2023-11-19T02:46:32;18.33;;;12.43;;
74630;SDS011;63138;55.082;38.804;2023-11-19T02:48:58;17.63;;;9.55;;
74630;SDS011;63138;55.082;38.804;2023-11-19T02:51:24;27.05;;;13.02;;
74630;SDS011;63138;55.082;38.804;2023-11-19T02:53:50;18.47;;;10.57;;
74630;SDS011;63138;55.082;38.804;2023-11-19T02:56:16;27.02;;;12.27;;
74630;SDS011;63138;55.082;38.804;2023-11-19T02:58:51;27.25;;;13.43;;
74630;SDS011;63138;55.082;38.804;2023-11-19T03:01:24;25.00;;;12.47;;
74630;SDS011;63138;55.082;38.804;2023-11-19T03:04:01;15.80;;;8.63;;
74630;SDS011;63138;55.082;38.804;2023-11-19T03:06:27;24.55;;;12.32;;
74630;SDS011;63138;55.082;38.804;2023-11-19T03:08:54;19.88;;;12.95;;
74630;SDS011;63138;55.082;38.804;2023-11-19T03:11:21;22.90;;;13.02;;
74630;SDS011;63138;55.082;38.804;2023-11-19T03:13:47;17.37;;;11.00;;
74630;SDS011;63138;55.082;38.804;2023-11-19T03:16:13;22.77;;;13.82;;
74630;SDS011;63138;55.082;38.804;2023-11-19T03:18:39;20.10;;;12.23;;
74630;SDS011;63138;55.082;38.804;2023-11-19T03:21:08;15.32;;;7.50;;
74630;SDS011;63138;55.082;38.804;2023-11-19T03:23:34;22.50;;;12.93;;
74630;SDS011;63138;55.082;38.804;2023-11-19T03:26:01;22.55;;;11.98;;
74630;SDS011;63138;55.082;38.804;2023-11-19T03:28:31;29.67;;;14.68;;
74630;SDS011;63138;55.082;38.804;2023-11-19T03:30:57;25.60;;;14.27;;
74630;SDS011;63138;55.082;38.804;2023-11-19T03:33:23;12.77;;;8.80;;
74630;SDS011;63138;55.082;38.804;2023-11-19T03:35:53;4.40;;;3.88;;
74630;SDS011;63138;55.082;38.804;2023-11-19T03:38:21;16.65;;;10.07;;
74630;SDS011;63138;55.082;38.804;2023-11-19T03:40:48;12.32;;;8.25;;
74630;SDS011;63138;55.082;38.804;2023-11-19T03:43:14;32.45;;;12.63;;
74630;SDS011;63138;55.082;38.804;2023-11-19T03:45:41;12.37;;;8.00;;
74630;SDS011;63138;55.082;38.804;2023-11-19T03:48:07;13.10;;;10.25;;
74630;SDS011;63138;55.082;38.804;2023-11-19T03:50:33;26.27;;;13.57;;
74630;SDS011;63138;55.082;38.804;2023-11-19T03:52:58;24.47;;;12.70;;
74630;SDS011;63138;55.082;38.804;2023-11-19T03:55:24;24.67;;;13.45;;
74630;SDS011;63138;55.082;38.804;2023-11-19T03:57:50;28.67;;;15.67;;
74630;SDS011;63138;55.082;38.804;2023-11-19T04:00:16;24.38;;;14.30;;
74630;SDS011;63138;55.082;38.804;2023-11-19T04:02:44;25.20;;;13.60;;
74630;SDS011;63138;55.082;38.804;2023-11-19T04:05:10;28.20;;;9.23;;
74630;SDS011;63138;55.082;38.804;2023-11-19T04:07:35;23.90;;;12.87;;
74630;SDS011;63138;55.082;38.804;2023-11-19T04:10:02;22.17;;;10.90;;
74630;SDS011;63138;55.082;38.804;2023-11-19T04:12:52;26.80;;;11.32;;
74630;SDS011;63138;55.082;38.804;2023-11-19T04:15:18;23.07;;;11.97;;
74630;SDS011;63138;55.082;38.804;2023-11-19T04:17:45;25.52;;;12.88;;
74630;SDS011;63138;55.082;38.804;2023-11-19T04:20:11;30.52;;;13.23;;
74630;SDS011;63138;55.082;38.804;2023-11-19T04:22:39;22.95;;;12.25;;
74630;SDS011;63138;55.082;38.804;2023-11-19T04:25:06;23.40;;;10.70;;
74630;SDS011;63138;55.082;38.804;2023-11-19T04:27:32;30.50;;;13.02;;
74630;SDS011;63138;55.082;38.804;2023-11-19T04:29:58;26.38;;;11.38;;
74630;SDS011;63138;55.082;38.804;2023-11-19T04:32:25;17.42;;;9.52;;
74630;SDS011;63138;55.082;38.804;2023-11-19T04:34:52;19.70;;;10.57;;
74630;SDS011;63138;55.082;38.804;2023-11-19T04:37:18;15.52;;;8.40;;
74630;SDS011;63138;55.082;38.804;2023-11-19T04:39:46;27.00;;;12.90;;
74630;SDS011;63138;55.082;38.804;2023-11-19T04:42:12;10.07;;;6.50;;
74630;SDS011;63138;55.082;38.804;2023-11-19T04:44:38;21.90;;;10.57;;
74630;SDS011;63138;55.082;38.804;2023-11-19T04:47:04;13.48;;;7.70;;
74630;SDS011;63138;55.082;38.804;2023-11-19T04:49:30;7.38;;;5.78;;
74630;SDS011;63138;55.082;38.804;2023-11-19T04:51:55;9.88;;;6.70;;
74630;SDS011;63138;55.082;38.804;2023-11-19T04:54:21;12.63;;;7.03;;
74630;SDS011;63138;55.082;38.804;2023-11-19T04:56:47;13.02;;;6.65;;
74630;SDS011;63138;55.082;38.804;2023-11-19T04:59:14;11.52;;;6.95;;
74630;SDS011;63138;55.082;38.804;2023-11-19T05:01:40;10.57;;;6.00;;
74630;SDS011;63138;55.082;38.804;2023-11-19T05:04:06;14.30;;;9.65;;
74630;SDS011;63138;55.082;38.804;2023-11-19T05:06:33;10.60;;;6.97;;
74630;SDS011;63138;55.082;38.804;2023-11-19T05:09:00;14.77;;;7.82;;
74630;SDS011;63138;55.082;38.804;2023-11-19T05:11:26;15.18;;;6.40;;
74630;SDS011;63138;55.082;38.804;2023-11-19T05:13:54;12.27;;;7.23;;
74630;SDS011;63138;55.082;38.804;2023-11-19T05:16:20;30.98;;;13.57;;
74630;SDS011;63138;55.082;38.804;2023-11-19T05:18:47;12.48;;;7.80;;
74630;SDS011;63138;55.082;38.804;2023-11-19T05:21:13;30.85;;;11.30;;
74630;SDS011;63138;55.082;38.804;2023-11-19T05:23:39;21.77;;;12.75;;
74630;SDS011;63138;55.082;38.804;2023-11-19T05:26:05;20.75;;;10.77;;
74630;SDS011;63138;55.082;38.804;2023-11-19T05:28:31;15.55;;;10.27;;
74630;SDS011;63138;55.082;38.804;2023-11-19T05:30:57;26.23;;;14.10;;
74630;SDS011;63138;55.082;38.804;2023-11-19T05:33:23;20.85;;;12.43;;
74630;SDS011;63138;55.082;38.804;2023-11-19T05:35:49;26.92;;;12.15;;
74630;SDS011;63138;55.082;38.804;2023-11-19T05:38:15;26.48;;;11.98;;
74630;SDS011;63138;55.082;38.804;2023-11-19T05:40:41;20.23;;;8.17;;
74630;SDS011;63138;55.082;38.804;2023-11-19T05:43:07;7.03;;;4.88;;
74630;SDS011;63138;55.082;38.804;2023-11-19T05:45:33;8.90;;;5.68;;
74630;SDS011;63138;55.082;38.804;2023-11-19T05:48:00;25.43;;;10.10;;
74630;SDS011;63138;55.082;38.804;2023-11-19T05:50:25;16.15;;;9.02;;
74630;SDS011;63138;55.082;38.804;2023-11-19T05:52:51;14.17;;;8.20;;
74630;SDS011;63138;55.082;38.804;2023-11-19T05:55:18;10.00;;;7.63;;
74630;SDS011;63138;55.082;38.804;2023-11-19T05:57:45;11.48;;;7.13;;
74630;SDS011;63138;55.082;38.804;2023-11-19T06:00:11;17.45;;;7.05;;
74630;SDS011;63138;55.082;38.804;2023-11-19T06:02:38;6.93;;;4.72;;
74630;SDS011;63138;55.082;38.804;2023-11-19T06:05:05;14.03;;;7.87;;
74630;SDS011;63138;55.082;38.804;2023-11-19T06:07:32;17.70;;;8.80;;
74630;SDS011;63138;55.082;38.804;2023-11-19T06:09:59;7.13;;;5.20;;
74630;SDS011;63138;55.082;38.804;2023-11-19T06:12:25;15.60;;;8.00;;
74630;SDS011;63138;55.082;38.804;2023-11-19T06:14:53;18.87;;;8.97;;
74630;SDS011;63138;55.082;38.804;2023-11-19T06:17:20;15.77;;;9.00;;
74630;SDS011;63138;55.082;38.804;2023-11-19T06:19:46;8.02;;;6.50;;
74630;SDS011;63138;55.082;38.804;2023-11-19T06:22:12;10.50;;;5.10;;
74630;SDS011;63138;55.082;38.804;2023-11-19T06:24:38;14.30;;;7.37;;
74630;SDS011;63138;55.082;38.804;2023-11-19T06:27:03;9.77;;;6.05;;
74630;SDS011;63138;55.082;38.804;2023-11-19T06:29:30;11.15;;;7.20;;
74630;SDS011;63138;55.082;38.804;2023-11-19T06:31:56;17.10;;;7.90;;
74630;SDS011;63138;55.082;38.804;2023-11-19T06:34:22;13.77;;;7.37;;
74630;SDS011;63138;55.082;38.804;2023-11-19T06:37:07;10.05;;;7.32;;
74630;SDS011;63138;55.082;38.804;2023-11-19T06:39:34;15.60;;;7.43;;
74630;SDS011;63138;55.082;38.804;2023-11-19T06:42:19;17.42;;;9.75;;
74630;SDS011;63138;55.082;38.804;2023-11-19T06:44:46;10.27;;;6.70;;
74630;SDS011;63138;55.082;38.804;2023-11-19T06:47:12;17.33;;;10.23;;
74630;SDS011;63138;55.082;38.804;2023-11-19T06:49:38;12.32;;;6.97;;
74630;SDS011;63138;55.082;38.804;2023-11-19T06:52:04;11.47;;;6.83;;
74630;SDS011;63138;55.082;38.804;2023-11-19T06:54:30;11.85;;;8.02;;
74630;SDS011;63138;55.082;38.804;2023-11-19T06:56:56;6.70;;;5.65;;
74630;SDS011;63138;55.082;38.804;2023-11-19T06:59:23;11.27;;;7.72;;
74630;SDS011;63138;55.082;38.804;2023-11-19T07:01:49;10.30;;;6.50;;
74630;SDS011;63138;55.082;38.804;2023-11-19T07:04:15;30.53;;;8.53;;
74630;SDS011;63138;55.082;38.804;2023-11-19T07:06:41;16.85;;;7.63;;
74630;SDS011;63138;55.082;38.804;2023-11-19T07:09:07;8.02;;;6.00;;
74630;SDS011;63138;55.082;38.804;2023-11-19T07:11:40;7.40;;;5.70;;
74630;SDS011;63138;55.082;38.804;2023-11-19T07:14:07;7.80;;;5.93;;
74630;SDS011;63138;55.082;38.804;2023-11-19T07:16:34;7.88;;;5.80;;
74630;SDS011;63138;55.082;38.804;2023-11-19T07:19:02;10.48;;;5.80;;
74630;SDS011;63138;55.082;38.804;2023-11-19T07:21:29;5.90;;;3.97;;
74630;SDS011;63138;55.082;38.804;2023-11-19T07:23:55;4.93;;;4.13;;
74630;SDS011;63138;55.082;38.804;2023-11-19T07:26:21;4.88;;;4.38;;
74630;SDS011;63138;55.082;38.804;2023-11-19T07:28:48;6.50;;;5.32;;
74630;SDS011;63138;55.082;38.804;2023-11-19T07:31:15;6.45;;;4.32;;
74630;SDS011;63138;55.082;38.804;2023-11-19T07:33:41;6.00;;;4.20;;
74630;SDS011;63138;55.082;38.804;2023-11-19T07:36:10;4.90;;;4.30;;
74630;SDS011;63138;55.082;38.804;2023-11-19T07:38:36;7.65;;;6.82;;
74630;SDS011;63138;55.082;38.804;2023-11-19T07:41:04;5.07;;;4.60;;
74630;SDS011;63138;55.082;38.804;2023-11-19T07:43:31;9.23;;;4.60;;
74630;SDS011;63138;55.082;38.804;2023-11-19T07:45:57;9.73;;;5.37;;
74630;SDS011;63138;55.082;38.804;2023-11-19T07:48:27;6.47;;;4.82;;
74630;SDS011;63138;55.082;38.804;2023-11-19T07:50:53;10.85;;;5.93;;
74630;SDS011;63138;55.082;38.804;2023-11-19T07:53:19;12.40;;;6.40;;
74630;SDS011;63138;55.082;38.804;2023-11-19T07:55:45;8.75;;;5.03;;
74630;SDS011;63138;55.082;38.804;2023-11-19T07:58:11;5.88;;;4.82;;
74630;SDS011;63138;55.082;38.804;2023-11-19T08:00:38;12.00;;;5.55;;
74630;SDS011;63138;55.082;38.804;2023-11-19T08:03:04;5.68;;;4.10;;
74630;SDS011;63138;55.082;38.804;2023-11-19T08:05:33;8.20;;;5.73;;
74630;SDS011;63138;55.082;38.804;2023-11-19T08:07:59;6.65;;;4.38;;
74630;SDS011;63138;55.082;38.804;2023-11-19T08:10:25;7.72;;;3.90;;
74630;SDS011;63138;55.082;38.804;2023-11-19T08:12:52;5.33;;;4.83;;
74630;SDS011;63138;55.082;38.804;2023-11-19T08:15:18;5.50;;;3.90;;
74630;SDS011;63138;55.082;38.804;2023-11-19T08:17:44;8.75;;;3.72;;
74630;SDS011;63138;55.082;38.804;2023-11-19T08:20:10;4.07;;;3.10;;
74630;SDS011;63138;55.082;38.804;2023-11-19T08:22:37;5.30;;;4.72;;
74630;SDS011;63138;55.082;38.804;2023-11-19T08:25:07;15.45;;;5.00;;
74630;SDS011;63138;55.082;38.804;2023-11-19T08:27:33;5.25;;;4.75;;
74630;SDS011;63138;55.082;38.804;2023-11-19T08:29:59;5.13;;;4.22;;
74630;SDS011;63138;55.082;38.804;2023-11-19T08:32:25;3.77;;;3.13;;
74630;SDS011;63138;55.082;38.804;2023-11-19T08:35:10;5.28;;;4.18;;
74630;SDS011;63138;55.082;38.804;2023-11-19T08:37:36;8.23;;;5.18;;
74630;SDS011;63138;55.082;38.804;2023-11-19T08:40:03;10.00;;;5.67;;
74630;SDS011;63138;55.082;38.804;2023-11-19T08:42:30;7.80;;;6.50;;
74630;SDS011;63138;55.082;38.804;2023-11-19T08:44:56;10.60;;;6.63;;
74630;SDS011;63138;55.082;38.804;2023-11-19T08:47:22;7.93;;;5.45;;
74630;SDS011;63138;55.082;38.804;2023-11-19T08:49:52;7.22;;;4.57;;
74630;SDS011;63138;55.082;38.804;2023-11-19T08:52:18;5.73;;;3.47;;
74630;SDS011;63138;55.082;38.804;2023-11-19T08:54:44;12.88;;;5.97;;
74630;SDS011;63138;55.082;38.804;2023-11-19T08:57:10;8.13;;;5.03;;
74630;SDS011;63138;55.082;38.804;2023-11-19T08:59:35;8.47;;;6.10;;
74630;SDS011;63138;55.082;38.804;2023-11-19T09:02:05;14.88;;;7.72;;
74630;SDS011;63138;55.082;38.804;2023-11-19T09:04:34;14.30;;;8.80;;
74630;SDS011;63138;55.082;38.804;2023-11-19T09:07:00;8.80;;;7.22;;
74630;SDS011;63138;55.082;38.804;2023-11-19T09:12:17;15.13;;;7.88;;
74630;SDS011;63138;55.082;38.804;2023-11-19T09:14:43;12.10;;;8.55;;
74630;SDS011;63138;55.082;38.804;2023-11-19T09:17:09;11.17;;;7.33;;
74630;SDS011;63138;55.082;38.804;2023-11-19T09:19:35;11.32;;;7.80;;
74630;SDS011;63138;55.082;38.804;2023-11-19T09:22:20;7.35;;;5.88;;
74630;SDS011;63138;55.082;38.804;2023-11-19T09:24:46;12.18;;;6.88;;
74630;SDS011;63138;55.082;38.804;2023-11-19T09:27:13;8.75;;;5.38;;
74630;SDS011;63138;55.082;38.804;2023-11-19T09:29:39;5.95;;;4.63;;
74630;SDS011;63138;55.082;38.804;2023-11-19T09:32:05;12.05;;;6.28;;
74630;SDS011;63138;55.082;38.804;2023-11-19T09:34:32;8.05;;;5.78;;
74630;SDS011;63138;55.082;38.804;2023-11-19T09:36:59;9.75;;;5.82;;
74630;SDS011;63138;55.082;38.804;2023-11-19T09:39:28;10.00;;;6.45;;
74630;SDS011;63138;55.082;38.804;2023-11-19T09:41:53;10.57;;;6.10;;
74630;SDS011;63138;55.082;38.804;2023-11-19T09:44:19;9.35;;;6.18;;
74630;SDS011;63138;55.082;38.804;2023-11-19T09:46:47;11.27;;;6.40;;
74630;SDS011;63138;55.082;38.804;2023-11-19T09:49:14;12.30;;;7.18;;
74630;SDS011;63138;55.082;38.804;2023-11-19T09:51:46;12.18;;;5.72;;
74630;SDS011;63138;55.082;38.804;2023-11-19T09:54:12;12.63;;;7.22;;
74630;SDS011;63138;55.082;38.804;2023-11-19T09:56:39;9.63;;;5.57;;
74630;SDS011;63138;55.082;38.804;2023-11-19T09:59:05;7.57;;;5.10;;
74630;SDS011;63138;55.082;38.804;2023-11-19T10:01:50;7.47;;;5.05;;
74630;SDS011;63138;55.082;38.804;2023-11-19T10:04:17;8.25;;;5.60;;
74630;SDS011;63138;55.082;38.804;2023-11-19T10:06:44;12.10;;;5.50;;
74630;SDS011;63138;55.082;38.804;2023-11-19T10:09:11;7.82;;;5.68;;
74630;SDS011;63138;55.082;38.804;2023-11-19T10:11:40;6.40;;;4.60;;
74630;SDS011;63138;55.082;38.804;2023-11-19T10:14:06;8.45;;;6.07;;
74630;SDS011;63138;55.082;38.804;2023-11-19T10:16:34;10.43;;;6.57;;
74630;SDS011;63138;55.082;38.804;2023-11-19T10:19:00;9.57;;;5.30;;
74630;SDS011;63138;55.082;38.804;2023-11-19T10:21:25;9.05;;;6.25;;
74630;SDS011;63138;55.082;38.804;2023-11-19T10:23:54;8.27;;;6.50;;
74630;SDS011;63138;55.082;38.804;2023-11-19T10:26:27;9.93;;;6.13;;
74630;SDS011;63138;55.082;38.804;2023-11-19T10:28:53;12.90;;;6.97;;
74630;SDS011;63138;55.082;38.804;2023-11-19T10:31:22;10.13;;;5.57;;
74630;SDS011;63138;55.082;38.804;2023-11-19T10:33:51;10.90;;;6.53;;
74630;SDS011;63138;55.082;38.804;2023-11-19T10:36:18;9.65;;;5.60;;
74630;SDS011;63138;55.082;38.804;2023-11-19T10:38:52;10.20;;;6.53;;
74630;SDS011;63138;55.082;38.804;2023-11-19T10:41:29;10.63;;;5.70;;
74630;SDS011;63138;55.082;38.804;2023-11-19T10:43:56;9.82;;;6.80;;
74630;SDS011;63138;55.082;38.804;2023-11-19T10:46:23;9.57;;;5.93;;
74630;SDS011;63138;55.082;38.804;2023-11-19T10:49:02;9.45;;;5.95;;
74630;SDS011;63138;55.082;38.804;2023-11-19T10:51:28;15.20;;;10.77;;
74630;SDS011;63138;55.082;38.804;2023-11-19T10:54:07;12.23;;;8.10;;
74630;SDS011;63138;55.082;38.804;2023-11-19T10:56:35;18.63;;;5.68;;
74630;SDS011;63138;55.082;38.804;2023-11-19T10:59:02;8.38;;;5.00;;
74630;SDS011;63138;55.082;38.804;2023-11-19T11:01:45;10.07;;;6.10;;
74630;SDS011;63138;55.082;38.804;2023-11-19T11:04:14;6.68;;;4.20;;
74630;SDS011;63138;55.082;38.804;2023-11-19T11:06:43;7.35;;;4.60;;
74630;SDS011;63138;55.082;38.804;2023-11-19T11:09:09;5.18;;;3.70;;
74630;SDS011;63138;55.082;38.804;2023-11-19T11:11:41;7.35;;;5.00;;
74630;SDS011;63138;55.082;38.804;2023-11-19T11:14:12;7.83;;;5.33;;
74630;SDS011;63138;55.082;38.804;2023-11-19T11:16:42;11.50;;;6.20;;
74630;SDS011;63138;55.082;38.804;2023-11-19T11:19:10;8.95;;;4.95;;
74630;SDS011;63138;55.082;38.804;2023-11-19T11:21:37;20.90;;;11.00;;
74630;SDS011;63138;55.082;38.804;2023-11-19T11:29:04;23.80;;;15.07;;
74630;SDS011;63138;55.082;38.804;2023-11-19T11:39:56;8.60;;;5.45;;
74630;SDS011;63138;55.082;38.804;2023-11-19T11:50:11;9.47;;;5.50;;
74630;SDS011;63138;55.082;38.804;2023-11-19T11:55:36;12.85;;;4.45;;
74630;SDS011;63138;55.082;38.804;2023-11-19T11:58:13;12.30;;;6.05;;
74630;SDS011;63138;55.082;38.804;2023-11-19T12:00:43;8.40;;;5.57;;
74630;SDS011;63138;55.082;38.804;2023-11-19T12:03:11;9.57;;;5.70;;
74630;SDS011;63138;55.082;38.804;2023-11-19T12:05:43;10.13;;;6.22;;
74630;SDS011;63138;55.082;38.804;2023-11-19T12:08:14;8.95;;;5.22;;
74630;SDS011;63138;55.082;38.804;2023-11-19T12:10:47;5.63;;;4.72;;
74630;SDS011;63138;55.082;38.804;2023-11-19T12:13:15;6.50;;;5.28;;
74630;SDS011;63138;55.082;38.804;2023-11-19T12:18:26;11.77;;;7.63;;
74630;SDS011;63138;55.082;38.804;2023-11-19T12:20:53;11.43;;;6.60;;
74630;SDS011;63138;55.082;38.804;2023-11-19T12:23:22;9.57;;;5.60;;
74630;SDS011;63138;55.082;38.804;2023-11-19T12:25:49;12.68;;;6.55;;
74630;SDS011;63138;55.082;38.804;2023-11-19T12:28:17;6.90;;;3.80;;
74630;SDS011;63138;55.082;38.804;2023-11-19T12:31:09;10.55;;;3.90;;
74630;SDS011;63138;55.082;38.804;2023-11-19T12:33:35;9.07;;;5.72;;
74630;SDS011;63138;55.082;38.804;2023-11-19T12:36:02;5.90;;;4.15;;
74630;SDS011;63138;55.082;38.804;2023-11-19T12:38:31;9.30;;;5.22;;
74630;SDS011;63138;55.082;38.804;2023-11-19T12:41:05;12.87;;;2.90;;
74630;SDS011;63138;55.082;38.804;2023-11-19T12:43:32;7.80;;;5.43;;
74630;SDS011;63138;55.082;38.804;2023-11-19T12:46:03;5.15;;;4.18;;
74630;SDS011;63138;55.082;38.804;2023-11-19T12:48:46;9.60;;;4.53;;
74630;SDS011;63138;55.082;38.804;2023-11-19T12:51:16;5.67;;;4.10;;
74630;SDS011;63138;55.082;38.804;2023-11-19T12:53:52;6.95;;;5.15;;
74630;SDS011;63138;55.082;38.804;2023-11-19T12:56:23;7.40;;;5.82;;
74630;SDS011;63138;55.082;38.804;2023-11-19T12:58:49;11.10;;;6.28;;
74630;SDS011;63138;55.082;38.804;2023-11-19T13:01:16;7.57;;;5.28;;
74630;SDS011;63138;55.082;38.804;2023-11-19T13:03:44;9.77;;;7.07;;
74630;SDS011;63138;55.082;38.804;2023-11-19T13:06:11;6.57;;;4.85;;
74630;SDS011;63138;55.082;38.804;2023-11-19T13:11:11;12.25;;;7.28;;
74630;SDS011;63138;55.082;38.804;2023-11-19T13:13:54;8.60;;;6.13;;
74630;SDS011;63138;55.082;38.804;2023-11-19T13:16:20;7.77;;;5.77;;
74630;SDS011;63138;55.082;38.804;2023-11-19T13:18:46;6.20;;;5.38;;
74630;SDS011;63138;55.082;38.804;2023-11-19T13:21:12;7.85;;;4.43;;
74630;SDS011;63138;55.082;38.804;2023-11-19T13:23:38;5.75;;;4.25;;
74630;SDS011;63138;55.082;38.804;2023-11-19T13:26:04;8.97;;;5.87;;
74630;SDS011;63138;55.082;38.804;2023-11-19T13:28:30;4.45;;;3.55;;
74630;SDS011;63138;55.082;38.804;2023-11-19T13:30:56;9.43;;;6.03;;
74630;SDS011;63138;55.082;38.804;2023-11-19T13:33:23;9.00;;;5.53;;
74630;SDS011;63138;55.082;38.804;2023-11-19T13:35:49;12.30;;;6.13;;
74630;SDS011;63138;55.082;38.804;2023-11-19T13:38:15;10.02;;;5.53;;
74630;SDS011;63138;55.082;38.804;2023-11-19T13:40:41;13.13;;;6.03;;
74630;SDS011;63138;55.082;38.804;2023-11-19T13:43:07;7.80;;;4.97;;
74630;SDS011;63138;55.082;38.804;2023-11-19T13:45:33;7.20;;;5.00;;
74630;SDS011;63138;55.082;38.804;2023-11-19T13:47:59;10.88;;;5.28;;
74630;SDS011;63138;55.082;38.804;2023-11-19T13:50:26;11.02;;;5.82;;
74630;SDS011;63138;55.082;38.804;2023-11-19T13:52:51;12.50;;;5.55;;
74630;SDS011;63138;55.082;38.804;2023-11-19T13:55:17;5.97;;;4.70;;
74630;SDS011;63138;55.082;38.804;2023-11-19T13:57:44;16.02;;;9.25;;
74630;SDS011;63138;55.082;38.804;2023-11-19T14:00:11;14.03;;;7.20;;
74630;SDS011;63138;55.082;38.804;2023-11-19T14:03:02;7.38;;;5.32;;
74630;SDS011;63138;55.082;38.804;2023-11-19T14:05:29;9.38;;;5.82;;
74630;SDS011;63138;55.082;38.804;2023-11-19T14:07:55;9.43;;;5.25;;
74630;SDS011;63138;55.082;38.804;2023-11-19T14:10:40;15.32;;;7.20;;
74630;SDS011;63138;55.082;38.804;2023-11-19T14:13:07;7.67;;;5.37;;
74630;SDS011;63138;55.082;38.804;2023-11-19T14:15:33;9.18;;;5.28;;
74630;SDS011;63138;55.082;38.804;2023-11-19T14:18:00;8.07;;;6.00;;
74630;SDS011;63138;55.082;38.804;2023-11-19T14:20:27;5.45;;;4.40;;
74630;SDS011;63138;55.082;38.804;2023-11-19T14:22:53;7.47;;;5.63;;
74630;SDS011;63138;55.082;38.804;2023-11-19T14:25:19;4.50;;;3.10;;
74630;SDS011;63138;55.082;38.804;2023-11-19T14:27:46;4.35;;;3.40;;
74630;SDS011;63138;55.082;38.804;2023-11-19T14:30:12;10.77;;;6.10;;
74630;SDS011;63138;55.082;38.804;2023-11-19T14:32:40;7.03;;;5.05;;
74630;SDS011;63138;55.082;38.804;2023-11-19T14:35:11;5.47;;;3.92;;
74630;SDS011;63138;55.082;38.804;2023-11-19T14:37:37;6.05;;;4.05;;
74630;SDS011;63138;55.082;38.804;2023-11-19T14:40:03;5.80;;;4.10;;
74630;SDS011;63138;55.082;38.804;2023-11-19T14:42:32;5.07;;;3.67;;
74630;SDS011;63138;55.082;38.804;2023-11-19T14:44:58;5.53;;;4.07;;
74630;SDS011;63138;55.082;38.804;2023-11-19T14:47:24;7.30;;;4.43;;
74630;SDS011;63138;55.082;38.804;2023-11-19T14:49:50;5.53;;;3.80;;
74630;SDS011;63138;55.082;38.804;2023-11-19T14:52:17;4.77;;;2.43;;
74630;SDS011;63138;55.082;38.804;2023-11-19T14:54:44;5.13;;;4.07;;
74630;SDS011;63138;55.082;38.804;2023-11-19T14:57:10;6.40;;;3.75;;
74630;SDS011;63138;55.082;38.804;2023-11-19T14:59:37;10.48;;;3.80;;